• Join FlightAware (Why Join?)
  • Login
  • US Flag 
07:11PM EST


 

Airport Tracker/Info


-or-


 

Live Flight TrackerFlight Track Log ✈ EJA982 ✈ 17-May-2013 ✈ KBKL - KCHO

Flight Track Log - Related Links

Times and Time Zones

All times are in EDT time to prevent confusion due to time zone crossing. See the EJA982 flight status page for this flight to view local times or setup timezone preferences in your user account.

Time Position Orientation Groundspeed Altitude Reporting Facility
EDT Latitude Longitude Course Direction KTS MPH feet Rate Location/Type
10:27PM 41.5253 -81.6731 162° South 162 186 1,400  Level Cleveland Center
10:28PM 41.5486 -81.6486 38° Northeast 184 212 3,000 3,155 Climbing Cleveland Center
10:29PM 41.5533 -81.5847 84° East 227 261 6,500 3,048 Climbing Cleveland Center
10:30PM 41.4933 -81.5283 145° Southeast 292 336 9,400 2,524 Climbing Cleveland Center
10:31PM 41.4167 -81.4664 149° Southeast 324 373 11,800 2,250 Climbing Cleveland Center
10:32PM 41.3211 -81.4236 161° South 340 391 13,900 2,250 Climbing Cleveland Center
10:33PM 40.9315 -81.1353 162° South  Level FlightAware Approximate
10:33PM 41.1983 -81.3889 168° South 381 438 16,300  Level Cleveland Center
10:34PM 41.0819 -81.3517 166° South 416 479 18,400 2,150 Climbing Cleveland Center
10:35PM 40.9761 -81.2789 153° Southeast 427 491 20,600 2,250 Climbing Cleveland Center
10:36PM 40.8806 -81.1817 142° Southeast 433 498 22,900 2,250 Climbing Cleveland Center
10:37PM 40.7831 -81.0822 142° Southeast 444 511 25,100 2,000 Climbing Cleveland Center
10:38PM 40.6981 -80.9911 141° Southeast 444 511 26,900 633 Climbing Cleveland Center
10:40PM 40.4819 -80.7714 142° Southeast 487 560 27,000 33 Climbing Cleveland Center
10:41PM 40.3547 -80.6431 142° Southeast 513 590 27,000  Level Cleveland Center
10:42PM 40.2381 -80.5258 142° Southeast 520 598 27,000  Level Cleveland Center
10:43PM 40.1233 -80.4119 143° Southeast 527 606 27,000  Level Cleveland Center
10:44PM 40.0064 -80.2986 143° Southeast 527 606 27,000  Level Cleveland Center
10:45PM 39.8892 -80.1800 142° Southeast 527 606 27,000  Level Cleveland Center
10:46PM 39.7742 -80.0700 144° Southeast 527 606 27,000  Level Cleveland Center
10:48PM 39.6133 -79.9125 143° Southeast 520 598 27,000  Level Washington Center
10:49PM 39.4986 -79.7981 142° Southeast 520 598 27,000  Level Washington Center
10:50PM 39.3858 -79.6839 142° Southeast 520 598 27,000  Level Washington Center
10:51PM 39.2708 -79.5675 142° Southeast 515 593 27,000 -403 Level Washington Center
10:52PM 39.1600 -79.4517 141° Southeast 515 593 26,200 -1,008 Descending Washington Center
10:53PM 39.0447 -79.3361 142° Southeast 496 571 25,000 -1,388 Descending Washington Center
10:54PM 38.9497 -79.2406 142° Southeast 490 564 23,400 -1,686 Descending Washington Center
10:55PM 38.8425 -79.1367 143° Southeast 490 564 21,600 -1,785 Descending Washington Center
10:56PM 38.7389 -79.0358 143° Southeast 485 558 19,800 -2,118 Descending Washington Center
10:57PM 38.6436 -78.9436 143° Southeast 465 535 17,400 -2,746 Descending Washington Center
10:58PM 38.5522 -78.8517 142° Southeast 441 507 14,400 -2,500 Descending Washington Center
10:59PM 38.4689 -78.7711 143° Southeast 407 468 12,400 -2,529 Descending Washington Center
11:00PM 38.4039 -78.7075 143° Southeast 349 402 9,300 -2,975 Descending Washington Center
11:01PM 38.3494 -78.6364 134° Southeast 303 349 6,400 -2,269 Descending Washington Center
11:02PM 38.3014 -78.5578 128° Southeast 281 323 4,800 -1,400 Descending Washington Center
11:03PM 38.2614 -78.4928 128° Southeast 252 290 3,600 -1,230 Descending Washington Center
11:04PM 38.2208 -78.4383 133° Southeast 198 228 2,300 -1,068 Descending Washington Center
11:05PM 38.1897 -78.4317 170° South 142 163 1,500 -763 Descending Washington Center
11:06PM 38.1519 -78.4461 197° South 131 151 800 -393 Descending Washington Center
11:07PM 38.1142 -78.4525 188° South 131 151 700 -97 Descending Washington Center
11:09PM 38.1333 -78.4500 North  Level FlightAware Approximate
11:16PM 38.1386 -78.4529 North  Level Estimated
11:17PM 38.1333 -78.4500 North  Level FlightAware Approximate
11:18PM 38.1386 -78.4529 North  Level Estimated
11:19PM 38.1333 -78.4500 North  Level FlightAware Approximate
11:20PM 38.1386 -78.4529 North  Level Estimated
11:21PM 38.1333 -78.4500 North  Level FlightAware Approximate
11:22PM 38.1386 -78.4529 North  Level Estimated
11:23PM 38.1333 -78.4500 North  Level FlightAware Approximate